Florence, Alabama
Current Conditions -  °F | °C
As of 11:53 PM on Friday 28 Nov 2014 (Local Time) from KMSL Reporting Station
Clear Clear  
Wind Chill: 39°   Ceiling: Unl
Heat Index: 44°   Visibility: 10mi
Dew Point: 23°   Wind: 9mph
Humidity: 43%   Direction: 190°S
Pressure: 30.18"   Gusts: NA
Location:  34.8°N, 87.67°W
Report Text: KMSL 290553Z AUTO 19008KT 10SM CLR 07/M05 A3018 RMK AO2 SLP221 T00671050 10072 20028 401171050 58011
Loading
Personal Weather Stations






























Interactive Weather Map New forecast layout! Learn more

10-Day Weather Forecast

Advertisements
Track Severe Weather on mobile